Time;durP1;ratioP1;P1;durP2;ratioP2;P2;SDS_P1;SDS_P2;PMS_P1;PMS_P2;Temp;Humidity;BMP_temperature;BMP_pressure;BME280_temperature;BME280_humidity;BME280_pressure;Samples;Min_cycle;Max_cycle;Signal;HPM_P1;HPM_P2
2022/12/22 03:26:50;;;;;;;144.48;46.47;;;8.00;99.90;;;;;;5058687;28;20131;-78
2022/12/22 03:29:16;;;;;;;183.32;49.40;;;8.30;99.90;;;;;;5056647;28;20140;-78
2022/12/22 03:31:42;;;;;;;136.93;45.97;;;8.00;99.90;;;;;;5053488;28;20119;-77
2022/12/22 03:34:08;;;;;;;206.00;50.05;;;8.20;99.90;;;;;;5047803;28;20119;-78
2022/12/22 03:36:33;;;;;;;118.90;44.25;;;8.00;99.90;;;;;;5054471;28;20048;-78
2022/12/22 03:38:59;;;;;;;174.10;48.28;;;9.50;99.90;;;;;;5052109;28;20050;-78
2022/12/22 03:47:10;;;;;;;163.23;46.33;;;9.00;99.90;;;;;;5041845;28;20049;-76
2022/12/22 03:49:35;;;;;;;120.22;44.00;;;9.10;99.90;;;;;;5048528;28;20052;-76
2022/12/22 03:52:01;;;;;;;110.00;40.78;;;7.60;99.90;;;;;;5032420;28;20056;-76
2022/12/22 03:54:27;;;;;;;170.27;48.03;;;8.00;99.90;;;;;;5038090;28;20040;-76
2022/12/22 03:56:53;;;;;;;142.23;44.20;;;8.00;99.90;;;;;;5033365;28;20079;-76
2022/12/22 03:59:19;;;;;;;120.03;43.13;;;8.10;99.90;;;;;;5047425;28;20037;-77
2022/12/22 04:01:48;;;;;;;131.38;43.95;;;8.00;99.90;;;;;;5055736;28;20041;-77
2022/12/22 04:04:16;;;;;;;100.35;40.88;;;7.30;99.90;;;;;;5048336;28;20478;-77
2022/12/22 04:06:41;;;;;;;110.88;43.35;;;7.90;99.90;;;;;;5052749;28;20044;-77
2022/12/22 04:09:07;;;;;;;119.53;44.88;;;8.10;99.90;;;;;;5053495;28;20045;-77
2022/12/22 04:14:18;;;;;;;150.68;48.38;;;7.80;99.90;;;;;;5053577;28;20604;-76
2022/12/22 04:16:44;;;;;;;154.82;48.33;;;8.00;99.90;;;;;;5032943;28;20060;-76
2022/12/22 04:19:09;;;;;;;131.55;45.85;;;8.90;99.90;;;;;;5029246;28;20191;-76
2022/12/22 04:21:36;;;;;;;169.20;48.63;;;8.00;99.90;;;;;;5048178;28;20072;-77
2022/12/22 04:24:02;;;;;;;129.68;45.40;;;9.60;99.90;;;;;;5052385;28;20570;-76
2022/12/22 04:26:27;;;;;;;158.05;47.88;;;8.00;99.90;;;;;;5044815;28;20076;-76
2022/12/22 04:28:53;;;;;;;152.38;48.85;;;9.40;99.90;;;;;;5051441;28;20064;-76
2022/12/22 04:31:20;;;;;;;134.57;43.80;;;8.00;99.90;;;;;;5049057;28;20052;-76
2022/12/22 04:33:46;;;;;;;129.50;46.10;;;9.10;99.90;;;;;;5056136;28;20044;-76
2022/12/22 04:36:12;;;;;;;123.47;43.78;;;9.40;99.90;;;;;;5047891;28;20147;-76
2022/12/22 04:38:38;;;;;;;125.40;43.45;;;8.50;99.90;;;;;;5040977;28;20044;-77
2022/12/22 04:41:05;;;;;;;157.82;47.13;;;8.00;99.90;;;;;;5054895;28;20545;-77
2022/12/22 04:43:31;;;;;;;147.18;45.35;;;8.00;99.90;;;;;;5037116;28;20041;-77
2022/12/22 04:45:57;;;;;;;161.77;47.90;;;7.90;99.90;;;;;;5046986;28;20033;-77
2022/12/22 04:48:24;;;;;;;124.75;44.83;;;8.50;99.90;;;;;;5044974;28;20094;-76
2022/12/22 04:50:52;;;;;;;146.13;46.90;;;8.00;99.90;;;;;;5030232;28;20558;-77
2022/12/22 04:53:18;;;;;;;165.05;46.47;;;7.90;99.90;;;;;;5049718;28;20037;-77
2022/12/22 04:55:45;;;;;;;144.15;44.60;;;9.30;99.90;;;;;;5048998;28;20041;-77
2022/12/22 04:58:11;;;;;;;128.70;43.60;;;8.90;99.90;;;;;;5047094;28;20102;-77
2022/12/22 05:00:37;;;;;;;135.52;46.45;;;8.00;99.90;;;;;;5047841;28;20041;-76
2022/12/22 05:03:02;;;;;;;127.68;42.85;;;9.40;99.90;;;;;;5045735;28;20099;-76
2022/12/22 05:05:28;;;;;;;119.35;41.80;;;7.90;99.90;;;;;;5030271;28;20069;-77
2022/12/22 05:07:54;;;;;;;123.80;42.78;;;7.90;99.90;;;;;;5047851;28;20044;-76
2022/12/22 05:10:19;;;;;;;130.35;43.78;;;9.20;99.90;;;;;;5046218;28;20094;-76
2022/12/22 05:12:54;;;;;;;139.00;43.17;;;9.30;99.90;;;;;;5048528;28;20064;-77
2022/12/22 05:15:25;;;;;;;145.68;42.92;;;7.90;99.90;;;;;;5044155;28;20583;-76
2022/12/22 05:17:51;;;;;;;119.05;41.17;;;7.90;99.90;;;;;;5046109;28;20081;-76
2022/12/22 05:20:17;;;;;;;114.70;41.13;;;7.80;99.90;;;;;;5042930;28;20041;-77
2022/12/22 05:22:43;;;;;;;106.30;38.75;;;7.90;99.90;;;;;;5030848;28;20132;-77
2022/12/22 05:25:09;;;;;;;106.85;40.75;;;8.10;99.90;;;;;;5029422;28;20459;-77
2022/12/22 05:27:35;;;;;;;101.03;39.97;;;9.40;99.90;;;;;;5048387;28;20056;-77
2022/12/22 05:30:01;;;;;;;112.93;41.17;;;7.80;99.90;;;;;;5046663;28;20055;-77
2022/12/22 05:32:27;;;;;;;107.18;39.38;;;7.80;99.90;;;;;;5048021;28;20037;-76
2022/12/22 05:34:52;;;;;;;99.20;36.97;;;7.80;99.90;;;;;;5063347;28;20102;-76
2022/12/22 05:37:21;;;;;;;106.63;40.15;;;7.80;99.90;;;;;;5046524;28;20037;-77
2022/12/22 05:39:47;;;;;;;99.78;39.38;;;7.80;99.90;;;;;;5046408;28;20084;-77
2022/12/22 05:42:12;;;;;;;107.82;40.78;;;7.80;99.90;;;;;;5040423;28;20048;-77
2022/12/22 05:44:38;;;;;;;106.13;39.72;;;7.80;99.90;;;;;;5046189;28;20393;-77
2022/12/22 05:47:03;;;;;;;101.50;38.03;;;8.10;99.90;;;;;;5027995;28;20037;-76
2022/12/22 05:49:29;;;;;;;100.90;38.08;;;9.30;99.90;;;;;;5047050;28;20102;-76
2022/12/22 05:51:55;;;;;;;117.97;41.58;;;7.70;99.90;;;;;;5046107;28;20064;-77
2022/12/22 05:54:21;;;;;;;95.10;36.17;;;7.70;99.90;;;;;;5047853;28;20040;-76
2022/12/22 05:56:46;;;;;;;102.30;36.55;;;9.50;99.90;;;;;;5046708;28;20377;-77
2022/12/22 05:59:12;;;;;;;113.65;41.67;;;9.10;99.90;;;;;;5029384;28;20488;-76
2022/12/22 06:01:38;;;;;;;97.65;37.35;;;7.20;99.90;;;;;;5049582;28;20072;-76
2022/12/22 06:04:03;;;;;;;96.13;38.22;;;7.70;99.90;;;;;;5029514;28;20445;-75
2022/12/22 06:06:29;;;;;;;87.80;35.03;;;7.70;99.90;;;;;;5079435;28;20037;-75
2022/12/22 06:08:55;;;;;;;100.88;36.28;;;7.60;99.90;;;;;;5048970;28;20045;-76
2022/12/22 06:11:21;;;;;;;96.10;36.53;;;7.70;99.90;;;;;;5050187;28;20485;-77
2022/12/22 06:13:46;;;;;;;93.80;34.80;;;8.50;99.90;;;;;;5033611;28;20037;-76
2022/12/22 06:16:12;;;;;;;118.90;38.08;;;8.00;99.90;;;;;;5033795;28;20460;-77
2022/12/22 06:18:38;;;;;;;96.03;36.25;;;7.40;99.90;;;;;;5050212;28;20047;-77
2022/12/22 06:21:04;;;;;;;81.85;33.85;;;7.60;99.90;;;;;;5082613;28;20047;-76
2022/12/22 06:23:29;;;;;;;118.45;35.97;;;7.60;99.90;;;;;;5033708;28;20051;-77
2022/12/22 06:26:02;;;;;;;82.15;33.03;;;8.90;99.90;;;;;;5050171;28;20060;-76
2022/12/22 06:28:28;;;;;;;124.30;35.90;;;7.90;99.90;;;;;;5042123;28;20037;-76
2022/12/22 06:30:54;;;;;;;87.90;35.78;;;7.50;99.90;;;;;;5049902;28;20126;-76
2022/12/22 06:33:20;;;;;;;84.72;33.67;;;8.60;99.90;;;;;;5050013;28;20041;-76
2022/12/22 06:35:46;;;;;;;75.28;32.13;;;7.40;99.90;;;;;;5032670;28;20041;-76
2022/12/22 06:38:12;;;;;;;77.00;31.70;;;7.30;99.90;;;;;;5048751;28;20095;-76
2022/12/22 06:40:37;;;;;;;93.57;33.20;;;8.40;99.90;;;;;;5051291;28;20064;-76
2022/12/22 06:43:09;;;;;;;70.05;30.27;;;7.30;99.90;;;;;;5049376;28;20390;-76
2022/12/22 06:45:38;;;;;;;67.63;29.58;;;7.20;99.90;;;;;;5048954;28;20098;-79
2022/12/22 06:48:05;;;;;;;68.60;30.60;;;7.80;99.90;;;;;;5055566;28;20048;-77
2022/12/22 06:50:31;;;;;;;76.40;30.73;;;7.20;99.90;;;;;;5048059;28;20041;-77
2022/12/22 06:52:57;;;;;;;85.45;32.42;;;7.20;99.90;;;;;;5031920;28;20045;-76
2022/12/22 06:55:22;;;;;;;80.32;31.90;;;7.10;99.90;;;;;;5042828;28;20558;-76
2022/12/22 06:57:48;;;;;;;81.55;30.77;;;7.40;99.90;;;;;;5049650;28;20071;-76
2022/12/22 07:00:14;;;;;;;68.57;26.25;;;7.10;99.90;;;;;;5051011;28;20440;-77
2022/12/22 07:02:40;;;;;;;60.30;26.98;;;7.10;99.90;;;;;;5047064;28;20030;-75
2022/12/22 07:05:06;;;;;;;59.47;23.35;;;7.00;99.90;;;;;;5048918;28;20594;-76
2022/12/22 07:07:31;;;;;;;67.53;24.95;;;7.00;99.90;;;;;;5049262;28;20029;-76
2022/12/22 07:09:57;;;;;;;61.22;22.48;;;6.90;99.90;;;;;;5048680;28;20064;-75
2022/12/22 07:12:23;;;;;;;53.80;20.20;;;7.30;99.90;;;;;;5049342;28;20069;-76
2022/12/22 07:14:49;;;;;;;53.40;20.02;;;6.80;99.90;;;;;;5050379;28;20045;-75
2022/12/22 07:17:15;;;;;;;56.72;19.50;;;6.80;99.90;;;;;;5031631;28;20053;-76
2022/12/22 07:19:40;;;;;;;49.35;19.02;;;7.30;99.90;;;;;;5048650;28;20493;-76
2022/12/22 07:22:06;;;;;;;42.63;18.33;;;8.30;99.90;;;;;;5048851;28;20156;-75
2022/12/22 07:24:32;;;;;;;51.28;18.63;;;7.50;99.90;;;;;;5050781;28;20052;-76
2022/12/22 07:26:58;;;;;;;52.22;17.50;;;6.70;99.90;;;;;;5048276;28;20124;-76
2022/12/22 07:29:24;;;;;;;51.80;17.50;;;8.30;99.90;;;;;;5048620;28;20132;-76
2022/12/22 07:31:50;;;;;;;55.47;18.00;;;7.20;99.90;;;;;;5048416;28;20047;-75
2022/12/22 07:34:16;;;;;;;45.67;16.50;;;6.60;99.90;;;;;;5049677;28;20052;-75
2022/12/22 07:36:41;;;;;;;60.85;19.20;;;7.70;99.90;;;;;;5031846;28;20039;-76
2022/12/22 07:39:07;;;;;;;51.15;18.15;;;6.50;99.90;;;;;;5031033;28;20037;-75
2022/12/22 07:44:17;;;;;;;44.45;16.48;;;6.50;99.90;;;;;;5047589;28;20044;-75
2022/12/22 07:46:43;;;;;;;49.88;16.45;;;6.40;99.90;;;;;;5048766;28;20149;-74
2022/12/22 07:51:56;;;;;;;53.38;18.42;;;6.40;99.90;;;;;;5049017;28;20106;-76
2022/12/22 07:54:22;;;;;;;58.33;18.35;;;6.30;99.90;;;;;;5048157;28;20037;-75
2022/12/22 07:56:47;;;;;;;60.55;18.98;;;6.30;99.90;;;;;;5050340;28;20052;-76
2022/12/22 07:59:14;;;;;;;60.97;18.67;;;6.30;99.90;;;;;;5047446;28;20518;-76
2022/12/22 08:01:40;;;;;;;66.20;19.67;;;6.30;99.90;;;;;;5041590;28;20444;-76
2022/12/22 08:04:06;;;;;;;56.47;17.70;;;6.30;99.90;;;;;;5049172;28;20041;-76
2022/12/22 08:06:33;;;;;;;55.63;18.33;;;6.30;99.90;;;;;;5035460;28;20037;-76
2022/12/22 08:08:59;;;;;;;65.22;17.65;;;6.30;99.90;;;;;;5032775;28;20037;-76
2022/12/22 08:11:24;;;;;;;59.90;18.42;;;6.30;99.90;;;;;;5047872;28;20489;-75
2022/12/22 08:13:50;;;;;;;61.40;17.73;;;6.30;99.90;;;;;;5055688;28;20051;-76
2022/12/22 08:16:18;;;;;;;54.33;17.15;;;6.30;99.90;;;;;;5034311;28;20377;-77
2022/12/22 08:18:47;;;;;;;49.83;15.15;;;7.70;99.90;;;;;;4695712;28;10000505;-77
2022/12/22 08:21:15;;;;;;;58.50;15.88;;;6.50;99.90;;;;;;5042108;28;20045;-78
2022/12/22 08:23:41;;;;;;;58.25;16.98;;;8.20;99.90;;;;;;5029299;28;20049;-77
2022/12/22 08:26:31;;;;;;;49.50;16.75;;;6.20;99.90;;;;;;5051593;28;20040;-78
2022/12/22 08:29:09;;;;;;;68.13;16.90;;;6.20;99.90;;;;;;5035380;28;20041;-78
2022/12/22 08:31:35;;;;;;;47.15;13.38;;;6.20;99.90;;;;;;5051570;28;20039;-78
2022/12/22 08:34:04;;;;;;;47.20;15.30;;;7.90;99.90;;;;;;5044923;28;20041;-76
2022/12/22 08:36:33;;;;;;;64.13;18.17;;;7.40;99.90;;;;;;5030661;28;20075;-77
2022/12/22 08:39:00;;;;;;;50.58;15.93;;;6.90;99.90;;;;;;5055600;28;20056;-77
2022/12/22 08:44:12;;;;;;;54.45;17.17;;;7.40;99.90;;;;;;5045713;28;20124;-76
2022/12/22 08:46:37;;;;;;;41.92;17.00;;;6.20;99.90;;;;;;5056441;28;20123;-77
2022/12/22 08:49:03;;;;;;;65.15;16.60;;;7.30;99.90;;;;;;5043433;28;20124;-77
2022/12/22 08:51:29;;;;;;;64.95;14.80;;;6.20;99.90;;;;;;5048386;28;20044;-77
2022/12/22 08:53:55;;;;;;;61.58;14.60;;;6.20;99.90;;;;;;5034860;28;20051;-77
2022/12/22 08:56:20;;;;;;;81.63;16.80;;;7.70;99.90;;;;;;5028493;28;20040;-75
2022/12/22 08:58:46;;;;;;;34.20;14.20;;;7.60;99.90;;;;;;5030557;28;20532;-77
2022/12/22 09:01:20;;;;;;;77.65;15.38;;;6.10;99.90;;;;;;5033571;28;20113;-78
2022/12/22 09:03:53;;;;;;;83.30;15.00;;;5.70;99.90;;;;;;5050861;28;20049;-78
2022/12/22 09:06:20;;;;;;;72.43;15.23;;;6.20;99.90;;;;;;5036212;28;20036;-79
2022/12/22 09:08:46;;;;;;;48.00;13.30;;;6.00;99.90;;;;;;5030504;28;20439;-78
2022/12/22 09:11:12;;;;;;;36.25;13.20;;;6.60;99.90;;;;;;5030009;28;20048;-78
2022/12/22 09:13:38;;;;;;;47.95;14.38;;;7.20;99.90;;;;;;5059803;28;20033;-78
2022/12/22 09:16:05;;;;;;;71.25;14.30;;;6.00;99.90;;;;;;5027787;28;20516;-76
2022/12/22 09:18:31;;;;;;;79.13;16.83;;;5.90;99.90;;;;;;5049468;28;20070;-78
2022/12/22 09:20:56;;;;;;;46.80;16.17;;;5.90;99.90;;;;;;5047019;28;20564;-79
2022/12/22 09:23:22;;;;;;;55.55;13.80;;;5.70;99.90;;;;;;4697101;28;10000535;-76
2022/12/22 09:25:48;;;;;;;25.88;12.45;;;7.70;99.90;;;;;;5029389;28;20044;-77
2022/12/22 09:28:13;;;;;;;32.13;11.43;;;7.60;99.90;;;;;;5029324;28;20386;-77
2022/12/22 09:30:39;;;;;;;35.10;12.25;;;6.10;99.90;;;;;;5061416;28;20044;-78
2022/12/22 09:33:05;;;;;;;32.70;10.60;;;5.90;99.90;;;;;;5044705;28;20045;-78
2022/12/22 09:35:30;;;;;;;30.02;11.35;;;7.60;99.90;;;;;;5045447;28;20045;-78
2022/12/22 09:37:57;;;;;;;27.05;10.30;;;7.10;99.90;;;;;;5028116;28;20047;-77
2022/12/22 09:40:23;;;;;;;47.78;11.07;;;7.50;99.90;;;;;;5044720;28;20132;-76
2022/12/22 09:42:49;;;;;;;34.58;10.23;;;5.80;99.90;;;;;;5029238;28;20048;-77
2022/12/22 09:45:19;;;;;;;27.83;8.68;;;5.80;99.90;;;;;;5057596;28;20044;-77
2022/12/22 09:47:52;;;;;;;30.25;7.88;;;7.80;99.90;;;;;;5047064;28;20060;-77
2022/12/22 09:50:22;;;;;;;33.65;9.40;;;5.80;99.90;;;;;;5045278;28;20079;-77
2022/12/22 09:53:01;;;;;;;32.50;9.68;;;7.20;99.90;;;;;;5042009;28;20053;-78
2022/12/22 09:55:46;;;;;;;38.47;9.63;;;5.80;99.90;;;;;;5029739;28;20119;-79
2022/12/22 09:58:26;;;;;;;25.05;10.40;;;6.80;99.90;;;;;;5030696;28;20054;-78
2022/12/22 10:01:10;;;;;;;40.35;10.52;;;5.80;99.90;;;;;;5074791;28;20053;-77
2022/12/22 10:03:49;;;;;;;44.00;10.80;;;5.90;99.90;;;;;;5040363;28;20052;-78
2022/12/22 10:06:38;;;;;;;41.20;12.02;;;5.90;99.90;;;;;;5048025;28;20295;-78
2022/12/22 10:09:18;;;;;;;60.92;16.17;;;5.90;99.90;;;;;;5022540;28;20060;-77
2022/12/22 10:11:53;;;;;;;29.13;11.90;;;6.00;99.90;;;;;;5032258;28;20131;-78
2022/12/22 10:14:18;;;;;;;;;;;6.00;99.90;;;;;;5050150;28;20076;-77
2022/12/22 10:16:44;;;;;;;31.60;9.93;;;6.10;99.90;;;;;;5048638;28;19964;-77
2022/12/22 10:19:11;;;;;;;36.53;11.68;;;6.20;99.90;;;;;;5064254;28;20048;-77
2022/12/22 10:21:37;;;;;;;32.75;11.57;;;6.20;99.90;;;;;;5049841;28;20390;-77
2022/12/22 10:24:38;;;;;;;44.20;13.82;;;5.90;99.90;;;;;;5027008;28;20033;-76
2022/12/22 10:27:04;;;;;;;29.40;12.05;;;6.30;99.90;;;;;;4985474;28;20063;-76
2022/12/22 10:29:32;;;;;;;25.48;11.63;;;6.40;99.90;;;;;;5019587;28;20531;-77
2022/12/22 10:32:12;;;;;;;24.38;10.07;;;6.90;99.90;;;;;;5031453;28;20052;-76
2022/12/22 10:35:01;;;;;;;21.17;9.25;;;6.40;99.90;;;;;;5031361;28;20044;-77
2022/12/22 10:37:36;;;;;;;21.02;10.40;;;6.50;99.90;;;;;;5048303;28;20065;-77
2022/12/22 10:40:21;;;;;;;20.92;9.38;;;6.20;99.90;;;;;;5047272;28;20102;-77
2022/12/22 10:42:49;;;;;;;;;;;6.60;99.90;;;;;;5048994;28;20064;-77
2022/12/22 10:45:20;;;;;;;19.60;9.55;;;6.60;99.90;;;;;;5066581;28;20536;-76
2022/12/22 10:47:49;;;;;;;20.38;8.70;;;6.70;99.90;;;;;;5030683;28;20053;-76
2022/12/22 10:50:15;;;;;;;24.10;8.15;;;6.60;99.90;;;;;;5028332;28;20064;-77
2022/12/22 10:52:52;;;;;;;13.88;7.32;;;6.70;99.90;;;;;;5033907;28;20472;-78
2022/12/22 10:55:26;;;;;;;20.38;8.68;;;6.70;99.90;;;;;;5037729;28;20528;-78
2022/12/22 10:58:16;;;;;;;16.70;7.13;;;6.70;99.90;;;;;;5024852;28;20076;-79
2022/12/22 11:00:43;;;;;;;19.52;7.80;;;6.70;99.90;;;;;;5026351;28;20037;-77
2022/12/22 11:03:13;;;;;;;19.83;8.25;;;8.60;99.90;;;;;;5074248;28;20398;-78
2022/12/22 11:05:42;;;;;;;13.80;7.55;;;6.70;99.90;;;;;;5041895;28;20041;-77
2022/12/22 11:08:17;;;;;;;16.80;7.28;;;6.90;99.90;;;;;;5042130;28;20116;-78
2022/12/22 11:10:54;;;;;;;15.18;7.30;;;8.20;99.90;;;;;;5049914;28;20041;-77
2022/12/22 11:13:38;;;;;;;13.43;6.75;;;6.80;99.90;;;;;;5038412;28;20088;-78
2022/12/22 11:16:20;;;;;;;17.20;7.57;;;6.80;99.90;;;;;;5030865;28;20052;-77
2022/12/22 11:19:17;;;;;;;16.15;8.50;;;6.80;99.90;;;;;;5039763;28;20045;-77
2022/12/22 11:22:20;;;;;;;16.15;6.93;;;7.60;99.90;;;;;;5072424;28;20507;-77
2022/12/22 11:25:15;;;;;;;17.02;6.57;;;6.80;99.90;;;;;;5022510;28;20053;-76
2022/12/22 11:28:07;;;;;;;15.93;6.25;;;6.80;99.90;;;;;;5037143;28;20038;-76
2022/12/22 11:30:45;;;;;;;14.93;6.57;;;6.90;99.90;;;;;;5023195;28;20053;-76
2022/12/22 11:33:32;;;;;;;12.60;4.82;;;7.00;99.90;;;;;;5033695;28;20048;-77
2022/12/22 11:36:00;;;;;;;17.67;5.47;;;7.00;99.90;;;;;;5038718;28;20041;-77
2022/12/22 11:38:38;;;;;;;14.20;5.30;;;7.10;99.90;;;;;;5036286;28;20067;-76
2022/12/22 11:41:09;;;;;;;12.63;5.07;;;7.10;99.90;;;;;;5041095;28;20232;-77
2022/12/22 11:44:10;;;;;;;12.57;4.57;;;7.60;99.90;;;;;;5075667;28;20589;-76
2022/12/22 11:46:59;;;;;;;12.70;5.30;;;7.20;99.90;;;;;;5052939;28;20044;-77
2022/12/22 11:49:42;;;;;;;13.50;5.03;;;7.30;99.90;;;;;;5050848;28;20041;-76
2022/12/22 11:52:17;;;;;;;15.65;4.82;;;7.40;99.90;;;;;;5066515;28;20040;-77
2022/12/22 11:55:04;;;;;;;14.45;4.47;;;7.50;99.90;;;;;;5033879;28;20068;-77
2022/12/22 11:57:47;;;;;;;14.75;4.22;;;7.50;99.90;;;;;;5051201;28;20400;-77
2022/12/22 12:00:15;;;;;;;13.57;4.70;;;8.70;99.90;;;;;;5031744;28;20050;-78
2022/12/22 12:03:22;;;;;;;16.70;4.25;;;7.60;99.90;;;;;;5032155;28;20326;-78
2022/12/22 12:05:53;;;;;;;14.68;4.97;;;7.60;99.90;;;;;;4701049;28;10000611;-77
2022/12/22 12:08:26;;;;;;;13.52;5.00;;;7.70;99.90;;;;;;5033449;28;20123;-78
2022/12/22 12:11:33;;;;;;;17.48;4.90;;;9.20;99.90;;;;;;5050078;28;20178;-79
2022/12/22 12:14:03;;;;;;;11.85;4.03;;;7.70;99.90;;;;;;5049693;28;20404;-79
2022/12/22 12:16:49;;;;;;;17.52;4.57;;;7.70;99.90;;;;;;5030432;28;20139;-78
2022/12/22 12:19:31;;;;;;;15.43;5.50;;;7.70;99.90;;;;;;5030496;28;20045;-79
2022/12/22 12:22:04;;;;;;;15.77;5.28;;;7.80;99.90;;;;;;5030084;28;20504;-78
2022/12/22 12:24:49;;;;;;;17.27;4.22;;;7.80;99.90;;;;;;5049994;28;20483;-77
2022/12/22 12:27:35;;;;;;;14.35;5.00;;;6.90;99.90;;;;;;5032408;28;20120;-78
2022/12/22 12:30:30;;;;;;;26.70;12.02;;;7.90;99.90;;;;;;5048324;28;20057;-76
2022/12/22 12:33:18;;;;;;;21.65;5.10;;;7.90;99.90;;;;;;5027466;28;20110;-77
2022/12/22 12:35:58;;;;;;;16.67;4.35;;;7.90;99.90;;;;;;5044466;28;20459;-77
2022/12/22 12:38:43;;;;;;;13.60;4.50;;;7.90;99.90;;;;;;5026150;28;20037;-76
2022/12/22 12:41:19;;;;;;;18.48;4.80;;;7.90;99.90;;;;;;5047397;28;20080;-78
2022/12/22 12:43:48;;;;;;;24.50;5.15;;;7.90;99.90;;;;;;5053813;28;20045;-77
2022/12/22 12:46:42;;;;;;;13.65;5.22;;;8.00;99.90;;;;;;5048643;28;20127;-78
2022/12/22 12:49:33;;;;;;;9.88;4.63;;;7.90;99.90;;;;;;5051922;28;20048;-78
2022/12/22 12:52:01;;;;;;;12.40;4.32;;;7.90;99.90;;;;;;5042853;28;20041;-79
2022/12/22 12:54:35;;;;;;;16.83;4.68;;;7.90;99.90;;;;;;5027182;28;20055;-77
2022/12/22 12:57:21;;;;;;;12.05;4.53;;;7.90;99.90;;;;;;5027929;28;20161;-76
2022/12/22 12:59:48;;;;;;;15.55;4.55;;;7.90;99.90;;;;;;5072891;28;20077;-80
2022/12/22 13:02:26;;;;;;;16.95;4.00;;;7.90;99.90;;;;;;5049892;28;20048;-80
2022/12/22 13:05:13;;;;;;;13.15;4.00;;;8.00;99.90;;;;;;5029988;28;20095;-78
2022/12/22 13:08:04;;;;;;;16.83;3.67;;;8.90;99.90;;;;;;5025064;28;20488;-78
2022/12/22 13:10:32;;;;;;;15.18;3.67;;;8.00;99.90;;;;;;5056850;28;20045;-78
2022/12/22 13:12:57;;;;;;;14.02;3.22;;;8.00;99.90;;;;;;5054335;28;20048;-77
2022/12/22 13:15:31;;;;;;;14.88;3.55;;;8.90;99.90;;;;;;5040297;28;20037;-79
2022/12/22 13:17:58;;;;;;;16.25;3.42;;;8.10;99.90;;;;;;5041296;28;20063;-77
2022/12/22 13:20:32;;;;;;;12.85;3.75;;;8.10;99.90;;;;;;5039941;28;20047;-77
2022/12/22 13:23:00;;;;;;;13.05;3.00;;;8.20;99.90;;;;;;5029989;28;20086;-78
2022/12/22 13:25:52;;;;;;;12.55;3.05;;;8.60;99.90;;;;;;5026431;28;20057;-78
2022/12/22 13:28:20;;;;;;;13.27;3.60;;;8.20;99.90;;;;;;5040419;28;20076;-79
2022/12/22 13:31:17;;;;;;;77.55;6.32;;;9.20;99.90;;;;;;5030731;28;20113;-77
2022/12/22 13:33:44;;;;;;;22.85;4.25;;;8.20;99.90;;;;;;5029703;28;20128;-76
2022/12/22 13:36:18;;;;;;;12.32;3.00;;;8.30;99.90;;;;;;5032819;28;20041;-79
2022/12/22 13:38:45;;;;;;;14.00;3.45;;;8.30;99.90;;;;;;5039953;28;20124;-79
2022/12/22 13:41:20;;;;;;;12.57;3.65;;;8.30;99.90;;;;;;5071379;28;20057;-79
2022/12/22 13:43:53;;;;;;;19.98;3.92;;;8.30;99.90;;;;;;5047107;28;20589;-80
2022/12/22 13:46:19;;;;;;;12.63;3.55;;;9.20;99.90;;;;;;5078558;28;20228;-79
2022/12/22 13:48:48;;;;;;;18.05;3.55;;;8.30;99.90;;;;;;5046447;28;20475;-75
2022/12/22 13:51:23;;;;;;;15.35;3.80;;;8.30;99.90;;;;;;5045912;28;20063;-74
2022/12/22 13:53:52;;;;;;;11.57;3.38;;;9.90;99.90;;;;;;5048209;28;20048;-74
2022/12/22 13:56:27;;;;;;;13.38;3.88;;;9.40;99.90;;;;;;5040139;28;20073;-78
2022/12/22 13:58:56;;;;;;;;;;;9.00;99.90;;;;;;5041924;28;20053;-79
2022/12/22 14:01:21;;;;;;;11.48;3.13;;;8.40;99.90;;;;;;5047828;28;20259;-79
2022/12/22 14:03:52;;;;;;;10.45;3.15;;;8.90;99.90;;;;;;5029271;28;20041;-79
2022/12/22 14:06:22;;;;;;;21.75;4.35;;;8.40;99.90;;;;;;5021731;28;20598;-81
2022/12/22 14:08:47;;;;;;;15.48;2.92;;;8.40;99.90;;;;;;5046462;28;20056;-79
2022/12/22 14:11:13;;;;;;;9.00;2.65;;;8.40;99.90;;;;;;5079616;28;20040;-78
2022/12/22 14:13:39;;;;;;;13.18;3.22;;;8.40;99.90;;;;;;5046380;28;20040;-79
2022/12/22 14:16:05;;;;;;;9.10;2.75;;;8.40;99.90;;;;;;5047454;28;20420;-78
2022/12/22 14:18:37;;;;;;;10.63;2.22;;;8.30;99.90;;;;;;5030539;28;20064;-77
2022/12/22 14:21:22;;;;;;;9.75;2.47;;;9.70;99.90;;;;;;5064258;28;20055;-76
2022/12/22 14:23:48;;;;;;;;;;;8.40;99.90;;;;;;5048636;28;20408;-78
2022/12/22 14:26:28;;;;;;;9.60;1.70;;;8.40;99.90;;;;;;5078623;28;20376;-78
2022/12/22 14:28:56;;;;;;;9.27;2.20;;;8.40;99.90;;;;;;5038416;28;20052;-80
2022/12/22 14:31:21;;;;;;;10.23;2.00;;;8.50;99.90;;;;;;5025107;28;20124;-80
2022/12/22 14:33:55;;;;;;;20.17;5.20;;;9.90;99.90;;;;;;5050258;28;20127;-80
2022/12/22 14:36:25;;;;;;;14.80;3.50;;;8.50;99.90;;;;;;5059210;28;20047;-78
2022/12/22 14:38:56;;;;;;;8.43;1.95;;;8.50;99.90;;;;;;5051058;28;20040;-78
2022/12/22 14:41:40;;;;;;;8.98;2.00;;;8.50;99.90;;;;;;5051522;28;20045;-80
2022/12/22 14:44:11;;;;;;;13.73;1.60;;;8.50;99.90;;;;;;5052291;28;20041;-79
2022/12/22 14:46:37;;;;;;;12.60;2.10;;;8.40;99.90;;;;;;5052154;28;20041;-79
2022/12/22 14:49:03;;;;;;;13.65;2.25;;;8.40;99.90;;;;;;5067058;28;20041;-80
2022/12/22 14:51:28;;;;;;;16.25;2.80;;;8.40;99.90;;;;;;5046636;28;20378;-80
2022/12/22 14:54:01;;;;;;;8.40;1.75;;;8.30;99.90;;;;;;5046494;28;20044;-77
2022/12/22 14:56:27;;;;;;;11.60;2.17;;;8.30;99.90;;;;;;5046388;28;20511;-75
2022/12/22 14:59:08;;;;;;;12.60;1.88;;;9.10;99.90;;;;;;5050374;28;20041;-76
2022/12/22 15:01:34;;;;;;;37.72;3.28;;;9.50;99.90;;;;;;5042187;28;20120;-76
2022/12/22 15:04:16;;;;;;;10.00;1.70;;;8.30;99.90;;;;;;5043993;28;20124;-80
2022/12/22 15:06:44;;;;;;;54.83;3.92;;;8.20;99.90;;;;;;5034959;28;20037;-79
2022/12/22 15:09:13;;;;;;;13.82;2.38;;;9.40;99.90;;;;;;5051824;28;20095;-80
2022/12/22 15:11:54;;;;;;;10.52;2.47;;;9.40;99.90;;;;;;5054805;28;20041;-80
2022/12/22 15:14:25;;;;;;;14.50;2.25;;;8.20;99.90;;;;;;5051709;28;20382;-78
2022/12/22 15:16:56;;;;;;;15.65;2.10;;;9.20;99.90;;;;;;5053052;28;20057;-79
2022/12/22 15:19:22;;;;;;;8.65;2.20;;;8.10;99.90;;;;;;5051995;28;20033;-79
2022/12/22 15:21:49;;;;;;;11.80;4.50;;;8.10;99.90;;;;;;5050475;28;20802;-78
2022/12/22 15:24:16;;;;;;;7.22;2.78;;;8.10;99.90;;;;;;5053984;28;20041;-80
2022/12/22 15:26:43;;;;;;;14.57;4.72;;;8.80;99.90;;;;;;5058533;28;20037;-79
2022/12/22 15:29:09;;;;;;;14.70;3.20;;;8.00;99.90;;;;;;5051912;28;20063;-78
2022/12/22 15:31:36;;;;;;;10.63;2.95;;;7.90;99.90;;;;;;5049825;28;20385;-80
2022/12/22 15:34:09;;;;;;;7.85;2.78;;;7.90;99.90;;;;;;5051734;28;20651;-81
2022/12/22 15:36:38;;;;;;;9.30;2.80;;;7.80;99.90;;;;;;4461530;28;10001810;-79
2022/12/22 15:39:12;;;;;;;8.07;2.42;;;7.80;99.90;;;;;;5049849;28;20043;-81
2022/12/22 15:41:37;;;;;;;12.52;3.25;;;7.80;99.90;;;;;;5052949;28;20041;-79
2022/12/22 15:44:03;;;;;;;10.73;3.00;;;8.70;99.90;;;;;;5052876;28;20095;-83
2022/12/22 15:46:28;;;;;;;12.98;3.03;;;8.70;99.90;;;;;;5037358;28;20031;-80
2022/12/22 15:48:54;;;;;;;11.07;2.80;;;7.90;99.90;;;;;;5062821;28;20049;-79
2022/12/22 15:51:25;;;;;;;13.80;2.92;;;8.70;99.90;;;;;;5047706;28;20044;-79
2022/12/22 15:53:52;;;;;;;14.55;3.33;;;7.60;99.90;;;;;;5046945;28;20055;-81
2022/12/22 15:56:21;;;;;;;14.55;2.97;;;7.60;99.90;;;;;;5048792;28;20075;-80
2022/12/22 15:58:47;;;;;;;8.32;2.95;;;7.60;99.90;;;;;;5050195;28;20044;-79
2022/12/22 16:01:13;;;;;;;9.52;3.40;;;7.30;99.90;;;;;;5030626;28;20054;-78
2022/12/22 16:03:39;;;;;;;10.95;3.83;;;7.50;99.90;;;;;;5043851;28;20453;-80
2022/12/22 16:06:07;;;;;;;7.00;3.63;;;7.50;99.90;;;;;;5045814;28;20084;-80
2022/12/22 16:08:37;;;;;;;9.45;3.38;;;7.50;99.90;;;;;;5039122;28;20041;-79
2022/12/22 16:11:05;;;;;;;9.27;3.33;;;7.50;99.90;;;;;;5043706;28;20048;-80
2022/12/22 16:13:30;;;;;;;7.65;2.92;;;7.40;99.90;;;;;;5031042;28;20544;-79
2022/12/22 16:15:57;;;;;;;10.60;3.45;;;7.40;99.90;;;;;;5036875;28;20051;-80
2022/12/22 16:18:23;;;;;;;11.30;3.92;;;7.40;99.90;;;;;;5050154;28;20079;-80
2022/12/22 16:20:49;;;;;;;12.18;3.65;;;7.40;99.90;;;;;;5047840;28;20480;-79
2022/12/22 16:23:22;;;;;;;7.25;3.67;;;6.30;99.90;;;;;;5050952;28;20569;-80
2022/12/22 16:25:48;;;;;;;10.07;3.45;;;7.80;99.90;;;;;;5031851;28;20104;-80
2022/12/22 16:28:20;;;;;;;17.15;5.30;;;7.40;99.90;;;;;;5052295;28;20548;-80
2022/12/22 16:30:46;;;;;;;10.75;5.00;;;7.90;99.90;;;;;;5090478;28;20245;-80
2022/12/22 16:33:13;;;;;;;11.52;5.20;;;7.30;99.90;;;;;;5053137;28;20043;-80
2022/12/22 16:35:39;;;;;;;10.50;5.25;;;7.30;99.90;;;;;;5054088;28;20128;-79
2022/12/22 16:38:05;;;;;;;9.85;5.75;;;7.40;99.90;;;;;;5046814;28;20128;-79
2022/12/22 16:40:32;;;;;;;18.02;7.55;;;8.80;99.90;;;;;;5046680;28;20067;-80